sensor_id;sensor_type;location;lat;lon;timestamp;temperature;humidity
21770;DHT22;11046;49.558;8.674;2022-11-25T00:00:52;3.70;99.90
21770;DHT22;11046;49.558;8.674;2022-11-25T00:03:54;3.60;99.90
21770;DHT22;11046;49.558;8.674;2022-11-25T00:06:55;3.60;99.90
21770;DHT22;11046;49.558;8.674;2022-11-25T00:09:55;3.60;99.90
21770;DHT22;11046;49.558;8.674;2022-11-25T00:12:56;3.70;99.90
21770;DHT22;11046;49.558;8.674;2022-11-25T00:16:00;3.70;99.90
21770;DHT22;11046;49.558;8.674;2022-11-25T00:19:02;3.70;99.90
21770;DHT22;11046;49.558;8.674;2022-11-25T00:22:02;3.70;99.90
21770;DHT22;11046;49.558;8.674;2022-11-25T00:25:03;3.70;99.90
21770;DHT22;11046;49.558;8.674;2022-11-25T00:28:04;3.80;99.90
21770;DHT22;11046;49.558;8.674;2022-11-25T00:31:10;3.70;99.90
21770;DHT22;11046;49.558;8.674;2022-11-25T00:34:12;3.70;99.90
21770;DHT22;11046;49.558;8.674;2022-11-25T00:37:13;3.80;99.90
21770;DHT22;11046;49.558;8.674;2022-11-25T00:40:13;3.90;99.90
21770;DHT22;11046;49.558;8.674;2022-11-25T00:43:15;3.90;99.90
21770;DHT22;11046;49.558;8.674;2022-11-25T00:46:34;3.90;99.90
21770;DHT22;11046;49.558;8.674;2022-11-25T00:49:35;4.00;99.90
21770;DHT22;11046;49.558;8.674;2022-11-25T00:52:36;3.90;99.90
21770;DHT22;11046;49.558;8.674;2022-11-25T00:55:37;3.90;99.90
21770;DHT22;11046;49.558;8.674;2022-11-25T00:58:57;3.80;99.90
21770;DHT22;11046;49.558;8.674;2022-11-25T01:01:59;3.80;99.90
21770;DHT22;11046;49.558;8.674;2022-11-25T01:05:00;3.90;99.90
21770;DHT22;11046;49.558;8.674;2022-11-25T01:08:01;3.90;99.90
21770;DHT22;11046;49.558;8.674;2022-11-25T01:11:06;3.80;99.90
21770;DHT22;11046;49.558;8.674;2022-11-25T01:14:08;3.80;99.90
21770;DHT22;11046;49.558;8.674;2022-11-25T01:17:08;3.80;99.90
21770;DHT22;11046;49.558;8.674;2022-11-25T01:20:09;3.80;99.90
21770;DHT22;11046;49.558;8.674;2022-11-25T01:23:10;3.80;99.90
21770;DHT22;11046;49.558;8.674;2022-11-25T01:26:12;3.80;99.90
21770;DHT22;11046;49.558;8.674;2022-11-25T01:29:16;3.70;99.90
21770;DHT22;11046;49.558;8.674;2022-11-25T01:32:17;3.70;99.90
21770;DHT22;11046;49.558;8.674;2022-11-25T01:35:18;3.70;99.90
21770;DHT22;11046;49.558;8.674;2022-11-25T01:38:20;3.70;99.90
21770;DHT22;11046;49.558;8.674;2022-11-25T01:41:21;3.60;99.90
21770;DHT22;11046;49.558;8.674;2022-11-25T01:44:25;3.70;99.90
21770;DHT22;11046;49.558;8.674;2022-11-25T01:47:26;3.70;99.90
21770;DHT22;11046;49.558;8.674;2022-11-25T01:50:27;3.70;99.90
21770;DHT22;11046;49.558;8.674;2022-11-25T01:53:28;3.90;99.90
21770;DHT22;11046;49.558;8.674;2022-11-25T01:56:38;3.80;99.90
21770;DHT22;11046;49.558;8.674;2022-11-25T01:59:43;3.80;99.90
21770;DHT22;11046;49.558;8.674;2022-11-25T02:02:47;3.90;99.90
21770;DHT22;11046;49.558;8.674;2022-11-25T02:09:15;3.80;99.90
21770;DHT22;11046;49.558;8.674;2022-11-25T02:12:19;3.80;99.90
21770;DHT22;11046;49.558;8.674;2022-11-25T02:15:20;3.80;99.90
21770;DHT22;11046;49.558;8.674;2022-11-25T02:18:21;3.80;99.90
21770;DHT22;11046;49.558;8.674;2022-11-25T02:21:30;3.90;99.90
21770;DHT22;11046;49.558;8.674;2022-11-25T02:24:44;4.10;99.90
21770;DHT22;11046;49.558;8.674;2022-11-25T02:27:50;4.40;99.90
21770;DHT22;11046;49.558;8.674;2022-11-25T02:30:54;4.70;99.90
21770;DHT22;11046;49.558;8.674;2022-11-25T02:33:56;4.90;99.90
21770;DHT22;11046;49.558;8.674;2022-11-25T02:36:58;5.10;99.90
21770;DHT22;11046;49.558;8.674;2022-11-25T02:39:59;5.30;99.90
21770;DHT22;11046;49.558;8.674;2022-11-25T02:42:59;5.40;99.90
21770;DHT22;11046;49.558;8.674;2022-11-25T02:46:12;5.60;99.90
21770;DHT22;11046;49.558;8.674;2022-11-25T02:49:13;5.70;99.90
21770;DHT22;11046;49.558;8.674;2022-11-25T02:52:15;5.80;99.90
21770;DHT22;11046;49.558;8.674;2022-11-25T02:55:16;5.90;99.90
21770;DHT22;11046;49.558;8.674;2022-11-25T02:58:17;6.00;99.90
21770;DHT22;11046;49.558;8.674;2022-11-25T03:01:18;6.10;99.90
21770;DHT22;11046;49.558;8.674;2022-11-25T03:04:22;6.10;99.90
21770;DHT22;11046;49.558;8.674;2022-11-25T03:07:23;6.20;99.90
21770;DHT22;11046;49.558;8.674;2022-11-25T03:10:24;6.20;99.90
21770;DHT22;11046;49.558;8.674;2022-11-25T03:13:25;6.30;99.90
21770;DHT22;11046;49.558;8.674;2022-11-25T03:16:26;6.40;99.90
21770;DHT22;11046;49.558;8.674;2022-11-25T03:19:27;6.40;99.90
21770;DHT22;11046;49.558;8.674;2022-11-25T03:22:28;6.40;99.90
21770;DHT22;11046;49.558;8.674;2022-11-25T03:25:28;6.40;99.90
21770;DHT22;11046;49.558;8.674;2022-11-25T03:28:29;6.40;99.90
21770;DHT22;11046;49.558;8.674;2022-11-25T03:31:30;6.40;99.90
21770;DHT22;11046;49.558;8.674;2022-11-25T03:34:31;6.40;99.90
21770;DHT22;11046;49.558;8.674;2022-11-25T03:37:32;6.50;99.90
21770;DHT22;11046;49.558;8.674;2022-11-25T03:40:32;6.50;99.90
21770;DHT22;11046;49.558;8.674;2022-11-25T03:43:33;6.60;99.90
21770;DHT22;11046;49.558;8.674;2022-11-25T03:46:35;6.60;99.90
21770;DHT22;11046;49.558;8.674;2022-11-25T03:49:38;6.70;99.90
21770;DHT22;11046;49.558;8.674;2022-11-25T03:52:40;6.60;99.90
21770;DHT22;11046;49.558;8.674;2022-11-25T03:55:42;6.60;99.90
21770;DHT22;11046;49.558;8.674;2022-11-25T03:58:43;6.50;99.90
21770;DHT22;11046;49.558;8.674;2022-11-25T04:01:45;6.40;99.90
21770;DHT22;11046;49.558;8.674;2022-11-25T04:04:47;6.40;99.90
21770;DHT22;11046;49.558;8.674;2022-11-25T04:07:47;6.50;99.90
21770;DHT22;11046;49.558;8.674;2022-11-25T04:10:49;6.50;99.90
21770;DHT22;11046;49.558;8.674;2022-11-25T04:13:52;6.60;99.90
21770;DHT22;11046;49.558;8.674;2022-11-25T04:16:52;6.70;99.90
21770;DHT22;11046;49.558;8.674;2022-11-25T04:19:53;6.70;99.90
21770;DHT22;11046;49.558;8.674;2022-11-25T04:22:53;6.70;99.90
21770;DHT22;11046;49.558;8.674;2022-11-25T04:25:55;6.60;99.90
21770;DHT22;11046;49.558;8.674;2022-11-25T04:29:05;6.40;99.80
21770;DHT22;11046;49.558;8.674;2022-11-25T04:32:07;6.20;99.80
21770;DHT22;11046;49.558;8.674;2022-11-25T04:35:08;6.10;99.90
21770;DHT22;11046;49.558;8.674;2022-11-25T04:38:09;6.00;99.90
21770;DHT22;11046;49.558;8.674;2022-11-25T04:41:11;5.90;99.80
21770;DHT22;11046;49.558;8.674;2022-11-25T04:44:16;5.80;99.90
21770;DHT22;11046;49.558;8.674;2022-11-25T04:47:17;5.70;99.90
21770;DHT22;11046;49.558;8.674;2022-11-25T04:50:20;5.60;99.80
21770;DHT22;11046;49.558;8.674;2022-11-25T04:53:47;5.50;99.80
21770;DHT22;11046;49.558;8.674;2022-11-25T04:56:49;5.30;99.80
21770;DHT22;11046;49.558;8.674;2022-11-25T04:59:50;5.30;99.90
21770;DHT22;11046;49.558;8.674;2022-11-25T05:02:53;5.20;99.90
21770;DHT22;11046;49.558;8.674;2022-11-25T05:05:55;5.10;99.90
21770;DHT22;11046;49.558;8.674;2022-11-25T05:08:56;5.00;99.90
21770;DHT22;11046;49.558;8.674;2022-11-25T05:11:59;5.00;99.90
21770;DHT22;11046;49.558;8.674;2022-11-25T05:15:00;5.00;99.90
21770;DHT22;11046;49.558;8.674;2022-11-25T05:18:01;5.00;99.90
21770;DHT22;11046;49.558;8.674;2022-11-25T05:21:14;4.90;99.90
21770;DHT22;11046;49.558;8.674;2022-11-25T05:24:16;4.90;99.90
21770;DHT22;11046;49.558;8.674;2022-11-25T05:27:18;4.80;99.90
21770;DHT22;11046;49.558;8.674;2022-11-25T05:30:19;4.80;99.90
21770;DHT22;11046;49.558;8.674;2022-11-25T05:33:20;4.70;99.90
21770;DHT22;11046;49.558;8.674;2022-11-25T05:36:21;4.70;99.90
21770;DHT22;11046;49.558;8.674;2022-11-25T05:39:23;4.70;99.90
21770;DHT22;11046;49.558;8.674;2022-11-25T05:42:47;4.70;99.90
21770;DHT22;11046;49.558;8.674;2022-11-25T05:45:47;4.60;99.90
21770;DHT22;11046;49.558;8.674;2022-11-25T05:48:52;4.60;99.90
21770;DHT22;11046;49.558;8.674;2022-11-25T05:51:54;4.60;99.90
21770;DHT22;11046;49.558;8.674;2022-11-25T05:54:57;4.50;99.90
21770;DHT22;11046;49.558;8.674;2022-11-25T05:57:58;4.50;99.90
21770;DHT22;11046;49.558;8.674;2022-11-25T06:00:59;4.40;99.90
21770;DHT22;11046;49.558;8.674;2022-11-25T06:04:02;4.40;99.90
21770;DHT22;11046;49.558;8.674;2022-11-25T06:07:03;4.40;99.90
21770;DHT22;11046;49.558;8.674;2022-11-25T06:10:04;4.50;99.90
21770;DHT22;11046;49.558;8.674;2022-11-25T06:13:09;4.50;99.90
21770;DHT22;11046;49.558;8.674;2022-11-25T06:16:19;4.60;99.90
21770;DHT22;11046;49.558;8.674;2022-11-25T06:19:24;4.70;99.90
21770;DHT22;11046;49.558;8.674;2022-11-25T06:22:24;4.80;99.90
21770;DHT22;11046;49.558;8.674;2022-11-25T06:25:25;4.70;99.90
21770;DHT22;11046;49.558;8.674;2022-11-25T06:28:26;4.80;99.90
21770;DHT22;11046;49.558;8.674;2022-11-25T06:31:26;4.80;99.90
21770;DHT22;11046;49.558;8.674;2022-11-25T06:34:53;4.80;99.90
21770;DHT22;11046;49.558;8.674;2022-11-25T06:38:17;4.80;99.90
21770;DHT22;11046;49.558;8.674;2022-11-25T06:41:19;4.80;99.90
21770;DHT22;11046;49.558;8.674;2022-11-25T06:44:20;4.90;99.90
21770;DHT22;11046;49.558;8.674;2022-11-25T06:47:20;4.90;99.90
21770;DHT22;11046;49.558;8.674;2022-11-25T06:50:21;4.90;99.90
21770;DHT22;11046;49.558;8.674;2022-11-25T06:53:22;5.00;99.90
21770;DHT22;11046;49.558;8.674;2022-11-25T06:56:25;5.00;99.90
21770;DHT22;11046;49.558;8.674;2022-11-25T06:59:26;5.00;99.90
21770;DHT22;11046;49.558;8.674;2022-11-25T07:02:26;4.90;99.90
21770;DHT22;11046;49.558;8.674;2022-11-25T07:05:27;4.90;99.90
21770;DHT22;11046;49.558;8.674;2022-11-25T07:08:28;5.00;99.90
21770;DHT22;11046;49.558;8.674;2022-11-25T07:11:34;5.00;99.90
21770;DHT22;11046;49.558;8.674;2022-11-25T07:14:35;5.00;99.90
21770;DHT22;11046;49.558;8.674;2022-11-25T07:17:36;5.00;99.90
21770;DHT22;11046;49.558;8.674;2022-11-25T07:20:37;5.10;99.90
21770;DHT22;11046;49.558;8.674;2022-11-25T07:23:37;5.20;99.90
21770;DHT22;11046;49.558;8.674;2022-11-25T07:26:39;5.20;99.90
21770;DHT22;11046;49.558;8.674;2022-11-25T07:29:40;5.30;99.90
21770;DHT22;11046;49.558;8.674;2022-11-25T07:32:41;5.30;99.90
21770;DHT22;11046;49.558;8.674;2022-11-25T07:35:41;5.40;99.90
21770;DHT22;11046;49.558;8.674;2022-11-25T07:38:42;5.40;99.90
21770;DHT22;11046;49.558;8.674;2022-11-25T07:41:43;5.40;99.90
21770;DHT22;11046;49.558;8.674;2022-11-25T07:44:44;5.40;99.90
21770;DHT22;11046;49.558;8.674;2022-11-25T07:48:07;5.40;99.90
21770;DHT22;11046;49.558;8.674;2022-11-25T07:54:17;5.60;99.90
21770;DHT22;11046;49.558;8.674;2022-11-25T07:57:17;5.60;99.90
21770;DHT22;11046;49.558;8.674;2022-11-25T08:00:18;5.70;99.90
21770;DHT22;11046;49.558;8.674;2022-11-25T08:03:19;5.80;99.90
21770;DHT22;11046;49.558;8.674;2022-11-25T08:06:22;5.90;99.90
21770;DHT22;11046;49.558;8.674;2022-11-25T08:09:23;5.90;99.90
21770;DHT22;11046;49.558;8.674;2022-11-25T08:12:24;6.00;99.90
21770;DHT22;11046;49.558;8.674;2022-11-25T08:15:25;6.10;99.90
21770;DHT22;11046;49.558;8.674;2022-11-25T08:18:26;6.10;99.90
21770;DHT22;11046;49.558;8.674;2022-11-25T08:21:27;6.10;99.90
21770;DHT22;11046;49.558;8.674;2022-11-25T08:24:27;6.20;99.90
21770;DHT22;11046;49.558;8.674;2022-11-25T08:27:28;6.30;99.90
21770;DHT22;11046;49.558;8.674;2022-11-25T08:30:28;6.30;99.90
21770;DHT22;11046;49.558;8.674;2022-11-25T08:33:29;6.40;99.90
21770;DHT22;11046;49.558;8.674;2022-11-25T08:36:30;6.40;99.90
21770;DHT22;11046;49.558;8.674;2022-11-25T08:39:31;6.50;99.90
21770;DHT22;11046;49.558;8.674;2022-11-25T08:42:32;6.50;99.90
21770;DHT22;11046;49.558;8.674;2022-11-25T08:45:33;6.50;99.90
21770;DHT22;11046;49.558;8.674;2022-11-25T08:48:34;6.70;99.90
21770;DHT22;11046;49.558;8.674;2022-11-25T08:51:36;6.80;99.90
21770;DHT22;11046;49.558;8.674;2022-11-25T08:54:37;6.90;99.90
21770;DHT22;11046;49.558;8.674;2022-11-25T08:57:37;7.00;99.90
21770;DHT22;11046;49.558;8.674;2022-11-25T09:00:39;7.00;99.90
21770;DHT22;11046;49.558;8.674;2022-11-25T09:03:42;7.10;99.90
21770;DHT22;11046;49.558;8.674;2022-11-25T09:06:43;7.20;99.90
21770;DHT22;11046;49.558;8.674;2022-11-25T09:09:44;7.20;99.90
21770;DHT22;11046;49.558;8.674;2022-11-25T09:12:44;7.20;99.90
21770;DHT22;11046;49.558;8.674;2022-11-25T09:15:45;7.20;99.90
21770;DHT22;11046;49.558;8.674;2022-11-25T09:18:46;7.20;99.90
21770;DHT22;11046;49.558;8.674;2022-11-25T09:21:46;7.20;99.90
21770;DHT22;11046;49.558;8.674;2022-11-25T09:24:47;7.30;99.90
21770;DHT22;11046;49.558;8.674;2022-11-25T09:27:48;7.40;99.90
21770;DHT22;11046;49.558;8.674;2022-11-25T09:30:48;7.40;99.90
21770;DHT22;11046;49.558;8.674;2022-11-25T09:33:49;7.40;99.90
21770;DHT22;11046;49.558;8.674;2022-11-25T09:36:50;7.40;99.90
21770;DHT22;11046;49.558;8.674;2022-11-25T09:39:52;7.40;99.90
21770;DHT22;11046;49.558;8.674;2022-11-25T09:43:05;7.50;99.90
21770;DHT22;11046;49.558;8.674;2022-11-25T09:53:42;7.50;99.90
21770;DHT22;11046;49.558;8.674;2022-11-25T09:56:50;7.40;99.90
21770;DHT22;11046;49.558;8.674;2022-11-25T10:03:43;7.40;99.90
21770;DHT22;11046;49.558;8.674;2022-11-25T10:06:49;7.40;99.90
21770;DHT22;11046;49.558;8.674;2022-11-25T10:09:52;7.40;99.90
21770;DHT22;11046;49.558;8.674;2022-11-25T10:12:54;7.40;99.90
21770;DHT22;11046;49.558;8.674;2022-11-25T10:15:58;7.40;99.90
21770;DHT22;11046;49.558;8.674;2022-11-25T10:19:09;7.40;99.90
21770;DHT22;11046;49.558;8.674;2022-11-25T10:22:30;7.40;99.90
21770;DHT22;11046;49.558;8.674;2022-11-25T10:25:37;7.40;99.90
21770;DHT22;11046;49.558;8.674;2022-11-25T10:28:40;7.40;99.90
21770;DHT22;11046;49.558;8.674;2022-11-25T10:31:45;7.40;99.90
21770;DHT22;11046;49.558;8.674;2022-11-25T10:34:49;7.40;99.90
21770;DHT22;11046;49.558;8.674;2022-11-25T10:37:54;7.30;99.90
21770;DHT22;11046;49.558;8.674;2022-11-25T10:40:56;7.40;99.90
21770;DHT22;11046;49.558;8.674;2022-11-25T10:43:57;7.40;99.90
21770;DHT22;11046;49.558;8.674;2022-11-25T10:57:18;7.30;99.90
21770;DHT22;11046;49.558;8.674;2022-11-25T11:00:34;7.40;99.90
21770;DHT22;11046;49.558;8.674;2022-11-25T11:03:35;7.40;99.90
21770;DHT22;11046;49.558;8.674;2022-11-25T11:06:38;7.40;99.90
21770;DHT22;11046;49.558;8.674;2022-11-25T11:09:39;7.40;99.90
21770;DHT22;11046;49.558;8.674;2022-11-25T11:13:01;7.50;99.90
21770;DHT22;11046;49.558;8.674;2022-11-25T11:16:02;7.50;99.90
21770;DHT22;11046;49.558;8.674;2022-11-25T11:19:03;7.50;99.90
21770;DHT22;11046;49.558;8.674;2022-11-25T11:22:15;7.40;99.90
21770;DHT22;11046;49.558;8.674;2022-11-25T11:28:26;7.60;99.90
21770;DHT22;11046;49.558;8.674;2022-11-25T11:31:34;7.60;99.90
21770;DHT22;11046;49.558;8.674;2022-11-25T11:37:53;7.70;99.90
21770;DHT22;11046;49.558;8.674;2022-11-25T11:41:17;7.80;99.90
21770;DHT22;11046;49.558;8.674;2022-11-25T11:45:04;7.80;99.90
21770;DHT22;11046;49.558;8.674;2022-11-25T11:54:43;8.30;99.90
21770;DHT22;11046;49.558;8.674;2022-11-25T12:04:46;8.30;99.90
21770;DHT22;11046;49.558;8.674;2022-11-25T12:08:08;8.40;99.90
21770;DHT22;11046;49.558;8.674;2022-11-25T12:11:13;8.50;99.90
21770;DHT22;11046;49.558;8.674;2022-11-25T12:14:40;8.50;99.90
21770;DHT22;11046;49.558;8.674;2022-11-25T12:17:47;8.60;99.90
21770;DHT22;11046;49.558;8.674;2022-11-25T12:27:18;8.80;99.90
21770;DHT22;11046;49.558;8.674;2022-11-25T12:30:22;8.80;99.90
21770;DHT22;11046;49.558;8.674;2022-11-25T12:33:35;8.70;99.90
21770;DHT22;11046;49.558;8.674;2022-11-25T12:36:40;8.70;99.90
21770;DHT22;11046;49.558;8.674;2022-11-25T12:39:55;8.70;99.90
21770;DHT22;11046;49.558;8.674;2022-11-25T12:43:12;8.70;99.90
21770;DHT22;11046;49.558;8.674;2022-11-25T12:46:28;8.80;99.90
21770;DHT22;11046;49.558;8.674;2022-11-25T12:49:39;8.80;99.90
21770;DHT22;11046;49.558;8.674;2022-11-25T12:55:57;9.10;99.90
21770;DHT22;11046;49.558;8.674;2022-11-25T13:09:47;9.40;99.90
21770;DHT22;11046;49.558;8.674;2022-11-25T13:13:25;9.40;99.90
21770;DHT22;11046;49.558;8.674;2022-11-25T13:16:30;9.40;99.90
21770;DHT22;11046;49.558;8.674;2022-11-25T13:19:32;9.40;99.90
21770;DHT22;11046;49.558;8.674;2022-11-25T13:22:36;9.40;99.90
21770;DHT22;11046;49.558;8.674;2022-11-25T13:25:40;9.30;99.90
21770;DHT22;11046;49.558;8.674;2022-11-25T13:28:41;9.40;99.90
21770;DHT22;11046;49.558;8.674;2022-11-25T13:32:03;9.40;99.90
21770;DHT22;11046;49.558;8.674;2022-11-25T13:38:57;9.40;99.90
21770;DHT22;11046;49.558;8.674;2022-11-25T13:45:25;9.30;99.90
21770;DHT22;11046;49.558;8.674;2022-11-25T13:48:29;9.30;99.90
21770;DHT22;11046;49.558;8.674;2022-11-25T13:51:32;9.30;99.90
21770;DHT22;11046;49.558;8.674;2022-11-25T13:54:53;9.40;99.90
21770;DHT22;11046;49.558;8.674;2022-11-25T14:01:21;9.40;99.90
21770;DHT22;11046;49.558;8.674;2022-11-25T14:04:52;9.50;99.90
21770;DHT22;11046;49.558;8.674;2022-11-25T14:18:13;9.70;99.90
21770;DHT22;11046;49.558;8.674;2022-11-25T14:27:38;9.60;99.90
21770;DHT22;11046;49.558;8.674;2022-11-25T14:30:52;9.50;99.90
21770;DHT22;11046;49.558;8.674;2022-11-25T14:33:57;9.40;99.90
21770;DHT22;11046;49.558;8.674;2022-11-25T14:37:31;9.50;99.90
21770;DHT22;11046;49.558;8.674;2022-11-25T14:40:43;9.60;99.90
21770;DHT22;11046;49.558;8.674;2022-11-25T14:43:53;9.70;99.90
21770;DHT22;11046;49.558;8.674;2022-11-25T14:46:57;9.70;99.90
21770;DHT22;11046;49.558;8.674;2022-11-25T14:49:58;9.70;99.90
21770;DHT22;11046;49.558;8.674;2022-11-25T14:53:05;9.70;99.90
21770;DHT22;11046;49.558;8.674;2022-11-25T14:56:06;9.70;99.90
21770;DHT22;11046;49.558;8.674;2022-11-25T14:59:09;9.70;99.90
21770;DHT22;11046;49.558;8.674;2022-11-25T15:02:28;9.70;99.90
21770;DHT22;11046;49.558;8.674;2022-11-25T15:05:35;9.70;99.90
21770;DHT22;11046;49.558;8.674;2022-11-25T15:08:45;9.60;99.90
21770;DHT22;11046;49.558;8.674;2022-11-25T15:12:01;9.60;99.90
21770;DHT22;11046;49.558;8.674;2022-11-25T15:15:05;9.50;99.90
21770;DHT22;11046;49.558;8.674;2022-11-25T15:18:09;9.40;99.90
21770;DHT22;11046;49.558;8.674;2022-11-25T15:21:12;9.40;99.90
21770;DHT22;11046;49.558;8.674;2022-11-25T15:24:41;9.40;99.90
21770;DHT22;11046;49.558;8.674;2022-11-25T15:27:47;9.40;99.90
21770;DHT22;11046;49.558;8.674;2022-11-25T15:31:00;9.20;99.90
21770;DHT22;11046;49.558;8.674;2022-11-25T15:34:05;9.20;99.90
21770;DHT22;11046;49.558;8.674;2022-11-25T15:37:10;9.20;99.90
21770;DHT22;11046;49.558;8.674;2022-11-25T15:40:36;9.20;99.90
21770;DHT22;11046;49.558;8.674;2022-11-25T15:43:48;9.20;99.90
21770;DHT22;11046;49.558;8.674;2022-11-25T15:47:29;9.20;99.90
21770;DHT22;11046;49.558;8.674;2022-11-25T15:50:32;9.10;99.90
21770;DHT22;11046;49.558;8.674;2022-11-25T15:53:35;9.00;99.90
21770;DHT22;11046;49.558;8.674;2022-11-25T15:56:42;9.00;99.90
21770;DHT22;11046;49.558;8.674;2022-11-25T16:02:55;8.90;99.90
21770;DHT22;11046;49.558;8.674;2022-11-25T16:06:00;8.90;99.90
21770;DHT22;11046;49.558;8.674;2022-11-25T16:09:02;8.80;99.90
21770;DHT22;11046;49.558;8.674;2022-11-25T16:12:06;8.80;99.90
21770;DHT22;11046;49.558;8.674;2022-11-25T16:15:17;8.80;99.90
21770;DHT22;11046;49.558;8.674;2022-11-25T16:18:21;8.80;99.90
21770;DHT22;11046;49.558;8.674;2022-11-25T16:21:26;8.80;99.90
21770;DHT22;11046;49.558;8.674;2022-11-25T16:27:36;8.80;99.90
21770;DHT22;11046;49.558;8.674;2022-11-25T16:30:38;8.80;99.90
21770;DHT22;11046;49.558;8.674;2022-11-25T16:33:39;8.70;99.90
21770;DHT22;11046;49.558;8.674;2022-11-25T16:36:41;8.70;99.90
21770;DHT22;11046;49.558;8.674;2022-11-25T16:39:42;8.60;99.90
21770;DHT22;11046;49.558;8.674;2022-11-25T16:42:48;8.50;99.90
21770;DHT22;11046;49.558;8.674;2022-11-25T16:45:52;8.30;99.90
21770;DHT22;11046;49.558;8.674;2022-11-25T16:48:54;8.30;99.90
21770;DHT22;11046;49.558;8.674;2022-11-25T16:51:56;8.30;99.90
21770;DHT22;11046;49.558;8.674;2022-11-25T16:54:57;8.30;99.90
21770;DHT22;11046;49.558;8.674;2022-11-25T16:57:59;8.20;99.90
21770;DHT22;11046;49.558;8.674;2022-11-25T17:01:01;8.20;99.90
21770;DHT22;11046;49.558;8.674;2022-11-25T17:04:04;8.20;99.90
21770;DHT22;11046;49.558;8.674;2022-11-25T17:07:10;8.20;99.90
21770;DHT22;11046;49.558;8.674;2022-11-25T17:10:13;8.20;99.90
21770;DHT22;11046;49.558;8.674;2022-11-25T17:13:18;8.10;99.90
21770;DHT22;11046;49.558;8.674;2022-11-25T17:16:24;8.10;99.90
21770;DHT22;11046;49.558;8.674;2022-11-25T17:19:27;8.00;99.90
21770;DHT22;11046;49.558;8.674;2022-11-25T17:22:30;8.00;99.90
21770;DHT22;11046;49.558;8.674;2022-11-25T17:25:32;8.00;99.90
21770;DHT22;11046;49.558;8.674;2022-11-25T17:28:34;8.00;99.90
21770;DHT22;11046;49.558;8.674;2022-11-25T17:31:36;8.00;99.90
21770;DHT22;11046;49.558;8.674;2022-11-25T17:34:39;7.90;99.90
21770;DHT22;11046;49.558;8.674;2022-11-25T17:37:40;8.00;99.90
21770;DHT22;11046;49.558;8.674;2022-11-25T17:40:42;8.00;99.90
21770;DHT22;11046;49.558;8.674;2022-11-25T17:43:44;8.00;99.90
21770;DHT22;11046;49.558;8.674;2022-11-25T17:46:47;7.90;99.90
21770;DHT22;11046;49.558;8.674;2022-11-25T17:49:48;8.00;99.90
21770;DHT22;11046;49.558;8.674;2022-11-25T17:52:50;8.00;99.90
21770;DHT22;11046;49.558;8.674;2022-11-25T17:55:51;8.00;99.90
21770;DHT22;11046;49.558;8.674;2022-11-25T17:58:53;8.00;99.90
21770;DHT22;11046;49.558;8.674;2022-11-25T18:01:55;8.00;99.90
21770;DHT22;11046;49.558;8.674;2022-11-25T18:05:00;8.00;99.90
21770;DHT22;11046;49.558;8.674;2022-11-25T18:08:01;7.90;99.90
21770;DHT22;11046;49.558;8.674;2022-11-25T18:11:04;7.80;99.90
21770;DHT22;11046;49.558;8.674;2022-11-25T18:14:15;7.80;99.90
21770;DHT22;11046;49.558;8.674;2022-11-25T18:17:18;7.80;99.90
21770;DHT22;11046;49.558;8.674;2022-11-25T18:20:24;7.70;99.90
21770;DHT22;11046;49.558;8.674;2022-11-25T18:23:25;7.70;99.90
21770;DHT22;11046;49.558;8.674;2022-11-25T18:26:27;7.70;99.90
21770;DHT22;11046;49.558;8.674;2022-11-25T18:29:32;7.70;99.90
21770;DHT22;11046;49.558;8.674;2022-11-25T18:32:33;7.60;99.90
21770;DHT22;11046;49.558;8.674;2022-11-25T18:35:34;7.60;99.90
21770;DHT22;11046;49.558;8.674;2022-11-25T18:38:35;7.60;99.90
21770;DHT22;11046;49.558;8.674;2022-11-25T18:41:38;7.70;99.90
21770;DHT22;11046;49.558;8.674;2022-11-25T18:44:39;7.70;99.90
21770;DHT22;11046;49.558;8.674;2022-11-25T18:47:43;7.70;99.90
21770;DHT22;11046;49.558;8.674;2022-11-25T18:50:45;7.70;99.90
21770;DHT22;11046;49.558;8.674;2022-11-25T18:53:47;7.70;99.90
21770;DHT22;11046;49.558;8.674;2022-11-25T18:56:49;7.70;99.90
21770;DHT22;11046;49.558;8.674;2022-11-25T18:59:52;7.70;99.90
21770;DHT22;11046;49.558;8.674;2022-11-25T19:02:54;7.80;99.90
21770;DHT22;11046;49.558;8.674;2022-11-25T19:05:55;7.80;99.90
21770;DHT22;11046;49.558;8.674;2022-11-25T19:09:01;7.80;99.90
21770;DHT22;11046;49.558;8.674;2022-11-25T19:12:05;7.90;99.90
21770;DHT22;11046;49.558;8.674;2022-11-25T19:15:09;7.90;99.90
21770;DHT22;11046;49.558;8.674;2022-11-25T19:18:15;7.90;99.90
21770;DHT22;11046;49.558;8.674;2022-11-25T19:21:19;7.90;99.90
21770;DHT22;11046;49.558;8.674;2022-11-25T19:24:21;7.90;99.90
21770;DHT22;11046;49.558;8.674;2022-11-25T19:27:23;8.00;99.90
21770;DHT22;11046;49.558;8.674;2022-11-25T19:30:29;8.00;99.90
21770;DHT22;11046;49.558;8.674;2022-11-25T19:33:34;7.90;99.90
21770;DHT22;11046;49.558;8.674;2022-11-25T19:36:36;7.90;99.90
21770;DHT22;11046;49.558;8.674;2022-11-25T19:39:38;8.00;99.90
21770;DHT22;11046;49.558;8.674;2022-11-25T19:42:40;8.00;99.90
21770;DHT22;11046;49.558;8.674;2022-11-25T19:45:42;7.90;99.90
21770;DHT22;11046;49.558;8.674;2022-11-25T19:48:44;7.90;99.90
21770;DHT22;11046;49.558;8.674;2022-11-25T19:51:46;7.90;99.90
21770;DHT22;11046;49.558;8.674;2022-11-25T19:54:48;7.90;99.90
21770;DHT22;11046;49.558;8.674;2022-11-25T19:57:50;7.90;99.90
21770;DHT22;11046;49.558;8.674;2022-11-25T20:00:52;7.80;99.90
21770;DHT22;11046;49.558;8.674;2022-11-25T20:03:54;7.80;99.90
21770;DHT22;11046;49.558;8.674;2022-11-25T20:06:56;7.80;99.90
21770;DHT22;11046;49.558;8.674;2022-11-25T20:10:16;7.90;99.90
21770;DHT22;11046;49.558;8.674;2022-11-25T20:13:18;7.90;99.90
21770;DHT22;11046;49.558;8.674;2022-11-25T20:16:23;7.90;99.90
21770;DHT22;11046;49.558;8.674;2022-11-25T20:19:25;7.90;99.90
21770;DHT22;11046;49.558;8.674;2022-11-25T20:22:30;7.90;99.90
21770;DHT22;11046;49.558;8.674;2022-11-25T20:25:40;7.90;99.90
21770;DHT22;11046;49.558;8.674;2022-11-25T20:28:43;7.90;99.90
21770;DHT22;11046;49.558;8.674;2022-11-25T20:31:45;7.80;99.90
21770;DHT22;11046;49.558;8.674;2022-11-25T20:34:46;7.80;99.90
21770;DHT22;11046;49.558;8.674;2022-11-25T20:37:47;7.80;99.90
21770;DHT22;11046;49.558;8.674;2022-11-25T20:40:56;7.80;99.90
21770;DHT22;11046;49.558;8.674;2022-11-25T20:43:58;7.80;99.90
21770;DHT22;11046;49.558;8.674;2022-11-25T20:47:00;7.90;99.90
21770;DHT22;11046;49.558;8.674;2022-11-25T20:50:01;7.80;99.90
21770;DHT22;11046;49.558;8.674;2022-11-25T20:53:02;7.70;99.90
21770;DHT22;11046;49.558;8.674;2022-11-25T20:56:03;7.80;99.90
21770;DHT22;11046;49.558;8.674;2022-11-25T20:59:19;7.80;99.90
21770;DHT22;11046;49.558;8.674;2022-11-25T21:02:21;7.80;99.90
21770;DHT22;11046;49.558;8.674;2022-11-25T21:05:21;7.80;99.90
21770;DHT22;11046;49.558;8.674;2022-11-25T21:08:27;7.80;99.90
21770;DHT22;11046;49.558;8.674;2022-11-25T21:11:28;7.80;99.90
21770;DHT22;11046;49.558;8.674;2022-11-25T21:14:32;7.80;99.90
21770;DHT22;11046;49.558;8.674;2022-11-25T21:17:33;7.80;99.90
21770;DHT22;11046;49.558;8.674;2022-11-25T21:20:34;7.70;99.90
21770;DHT22;11046;49.558;8.674;2022-11-25T21:23:36;7.70;99.90